Time;durP1;ratioP1;P1;durP2;ratioP2;P2;SDS_P1;SDS_P2;PMS_P1;PMS_P2;Temp;Humidity;BMP_temperature;BMP_pressure;BME280_temperature;BME280_humidity;BME280_pressure;Samples;Min_cycle;Max_cycle;Signal;HPM_P1;HPM_P2
2022/01/14 00:01:33;;;;;;;109.83;25.97;;;0.30;99.90;;;;;;5030960;28;20457;-69
2022/01/14 00:04:00;;;;;;;139.73;24.77;;;0.10;99.90;;;;;;5030253;28;20484;-69
2022/01/14 00:06:26;;;;;;;143.30;23.63;;;0.10;99.90;;;;;;5030707;28;20867;-69
2022/01/14 00:08:58;;;;;;;132.57;23.97;;;0.00;99.90;;;;;;5011315;28;20490;-68
2022/01/14 00:11:25;;;;;;;103.30;24.33;;;0.00;99.90;;;;;;5030332;28;20475;-70
2022/01/14 00:13:59;;;;;;;81.53;20.00;;;0.00;99.90;;;;;;5030789;28;20484;-69
2022/01/14 00:16:25;;;;;;;149.37;24.80;;;0.00;99.90;;;;;;5031023;28;20449;-69
2022/01/14 00:18:52;;;;;;;132.77;22.33;;;0.00;99.90;;;;;;5030461;28;20953;-69
2022/01/14 00:21:19;;;;;;;91.90;22.30;;;-0.10;99.90;;;;;;5030699;28;20520;-69
2022/01/14 00:23:50;;;;;;;100.57;23.43;;;0.00;99.90;;;;;;5031194;28;20480;-69
2022/01/14 00:31:51;;;;;;;89.90;20.53;;;-0.20;99.90;;;;;;5028140;28;20459;-68
2022/01/14 00:34:18;;;;;;;79.57;22.17;;;-0.20;99.90;;;;;;5031262;28;20933;-69
2022/01/14 00:36:45;;;;;;;90.37;20.90;;;-0.30;99.90;;;;;;5031533;28;20522;-69
2022/01/14 00:39:14;;;;;;;62.67;23.00;;;-0.30;99.90;;;;;;5030700;28;20456;-69
2022/01/14 00:41:42;;;;;;;49.57;18.00;;;-0.40;99.90;;;;;;5031145;28;20449;-69
2022/01/14 00:44:12;;;;;;;82.63;20.03;;;-0.40;99.90;;;;;;5031149;28;20469;-69
2022/01/14 00:46:40;;;;;;;95.27;22.60;;;-0.30;99.90;;;;;;5030172;28;20598;-68
2022/01/14 00:49:06;;;;;;;66.43;18.87;;;-0.30;99.90;;;;;;5030533;28;20489;-69
2022/01/14 00:51:34;;;;;;;65.43;19.90;;;-0.30;99.90;;;;;;5030973;28;21004;-69
2022/01/14 00:54:00;;;;;;;60.47;18.73;;;-0.40;99.90;;;;;;5030568;28;20485;-69
2022/01/14 00:56:32;;;;;;;60.83;19.57;;;-0.40;99.90;;;;;;5031323;28;20458;-69
2022/01/14 00:59:14;;;;;;;59.17;20.73;;;-0.50;99.90;;;;;;5030183;28;21051;-69
2022/01/14 01:01:43;;;;;;;66.50;19.07;;;-0.50;99.90;;;;;;5028072;28;20477;-69
2022/01/14 01:04:11;;;;;;;62.43;19.47;;;-0.50;99.90;;;;;;5016236;28;20477;-69
2022/01/14 01:06:37;;;;;;;68.77;20.63;;;-0.50;99.90;;;;;;5030744;28;20987;-69
2022/01/14 01:09:09;;;;;;;66.20;20.80;;;-0.50;99.90;;;;;;5030135;28;20493;-69
2022/01/14 01:11:38;;;;;;;52.93;18.20;;;-0.50;99.90;;;;;;5030628;28;20449;-69
2022/01/14 01:14:10;;;;;;;54.87;18.17;;;-0.50;99.90;;;;;;5030463;28;20473;-69
2022/01/14 01:16:36;;;;;;;49.90;17.50;;;-0.50;99.90;;;;;;5030019;28;20450;-69
2022/01/14 01:19:05;;;;;;;65.13;18.73;;;-0.50;99.90;;;;;;5030393;28;20519;-69
2022/01/14 01:21:32;;;;;;;49.40;17.90;;;-0.50;99.90;;;;;;5031004;28;20557;-69
2022/01/14 01:23:59;;;;;;;58.77;18.10;;;-0.60;99.90;;;;;;5030325;28;20508;-69
2022/01/14 01:26:30;;;;;;;57.43;16.43;;;-0.60;99.90;;;;;;5030761;28;20956;-69
2022/01/14 01:29:03;;;;;;;60.57;16.20;;;-0.60;99.90;;;;;;5030181;28;20485;-69
2022/01/14 01:31:37;;;;;;;71.17;17.50;;;-0.60;99.90;;;;;;5030016;28;20468;-69
2022/01/14 01:34:08;;;;;;;52.03;17.17;;;-0.60;99.90;;;;;;5030374;28;20496;-68
2022/01/14 01:36:36;;;;;;;59.67;18.93;;;-0.60;99.90;;;;;;5030923;28;20445;-69
2022/01/14 01:39:05;;;;;;;44.10;16.77;;;-0.60;99.90;;;;;;5030341;28;20459;-69
2022/01/14 01:41:34;;;;;;;118.07;17.87;;;-0.60;99.90;;;;;;5030217;28;20516;-69
2022/01/14 01:44:01;;;;;;;59.63;16.90;;;-0.60;99.90;;;;;;5030177;28;20531;-69
2022/01/14 01:46:28;;;;;;;103.77;18.43;;;-0.60;99.90;;;;;;5033035;28;20457;-69
2022/01/14 01:48:55;;;;;;;99.70;17.57;;;-0.50;99.90;;;;;;5033953;28;20901;-69
2022/01/14 01:51:22;;;;;;;65.53;20.60;;;-0.60;99.90;;;;;;5034146;28;20955;-69
2022/01/14 01:53:50;;;;;;;112.90;20.20;;;-0.50;99.90;;;;;;5034282;28;20882;-69
2022/01/14 01:56:17;;;;;;;70.77;18.87;;;-0.50;99.90;;;;;;5034798;28;20851;-69
2022/01/14 01:58:45;;;;;;;57.57;18.17;;;-0.50;99.90;;;;;;5033558;28;21007;-69
2022/01/14 02:01:12;;;;;;;122.80;22.13;;;-0.50;99.90;;;;;;5033752;28;20449;-68
2022/01/14 02:03:39;;;;;;;103.00;18.47;;;-0.40;99.90;;;;;;5034397;28;20465;-69
2022/01/14 02:06:06;;;;;;;89.83;18.20;;;-0.50;99.90;;;;;;5034203;28;20448;-69
2022/01/14 02:08:34;;;;;;;85.67;17.17;;;-0.40;99.90;;;;;;5033824;28;20551;-69
2022/01/14 02:11:01;;;;;;;142.57;20.13;;;-0.50;99.90;;;;;;5033965;28;20453;-69
2022/01/14 02:13:30;;;;;;;92.43;20.90;;;-0.50;99.90;;;;;;5034064;28;20489;-69
2022/01/14 02:16:18;;;;;;;109.23;21.93;;;-0.50;99.90;;;;;;5033120;28;20481;-69
2022/01/14 02:19:00;;;;;;;101.93;19.23;;;-0.60;99.90;;;;;;5033248;28;20535;-69
2022/01/14 02:24:32;;;;;;;88.50;19.53;;;-0.60;99.90;;;;;;5033626;28;20870;-68
2022/01/14 02:26:59;;;;;;;62.57;18.60;;;-0.60;99.90;;;;;;5033228;28;20468;-69
2022/01/14 02:29:25;;;;;;;72.17;18.23;;;-0.60;99.90;;;;;;5033583;28;20477;-69
2022/01/14 02:31:52;;;;;;;74.43;18.53;;;-0.60;99.90;;;;;;5033527;28;20453;-69
2022/01/14 02:34:19;;;;;;;80.30;17.80;;;-0.60;99.90;;;;;;5033671;28;20888;-68
2022/01/14 02:36:48;;;;;;;60.70;17.10;;;-0.60;99.90;;;;;;5032682;28;20526;-68
2022/01/14 02:39:17;;;;;;;63.10;18.17;;;-0.60;99.90;;;;;;5033333;28;20499;-69
2022/01/14 02:41:45;;;;;;;57.83;20.50;;;-0.60;99.90;;;;;;5033265;28;20862;-68
2022/01/14 02:44:17;;;;;;;89.00;19.90;;;-0.60;99.90;;;;;;5033427;28;20523;-69
2022/01/14 02:46:52;;;;;;;118.87;19.47;;;-0.60;99.90;;;;;;5032448;28;20453;-68
2022/01/14 02:49:19;;;;;;;117.70;18.30;;;-0.60;99.90;;;;;;5033185;28;20477;-69
2022/01/14 02:51:47;;;;;;;104.70;18.87;;;-0.60;99.90;;;;;;5032157;28;20983;-69
2022/01/14 02:54:16;;;;;;;92.60;18.67;;;-0.60;99.90;;;;;;5032731;28;20560;-68
2022/01/14 02:56:44;;;;;;;93.70;17.83;;;-0.60;99.90;;;;;;5033172;28;20523;-69
2022/01/14 02:59:11;;;;;;;103.70;19.67;;;-0.60;99.90;;;;;;5033062;28;20449;-68
2022/01/14 03:01:38;;;;;;;71.63;17.43;;;-0.60;99.90;;;;;;5033076;28;20500;-68
2022/01/14 03:04:05;;;;;;;86.83;20.67;;;-0.50;99.90;;;;;;5030011;28;20992;-69
2022/01/14 03:06:32;;;;;;;126.37;20.30;;;-0.60;99.90;;;;;;5033548;28;20519;-69
2022/01/14 03:09:01;;;;;;;68.53;19.20;;;-0.60;99.90;;;;;;5031900;28;20478;-69
2022/01/14 03:11:31;;;;;;;114.50;20.10;;;-0.60;99.90;;;;;;5032561;28;20849;-69
2022/01/14 03:13:58;;;;;;;98.37;18.90;;;-0.50;99.90;;;;;;5033140;28;20511;-69
2022/01/14 03:16:25;;;;;;;92.20;18.90;;;-0.40;99.90;;;;;;5033026;28;20515;-69
2022/01/14 03:18:54;;;;;;;113.57;19.53;;;-0.50;99.90;;;;;;5032036;28;20445;-68
2022/01/14 03:21:27;;;;;;;148.17;18.90;;;-0.50;99.90;;;;;;5033280;28;20453;-68
2022/01/14 03:24:03;;;;;;;141.97;19.10;;;-0.50;99.90;;;;;;5032500;28;20473;-69
2022/01/14 03:26:31;;;;;;;128.07;20.07;;;-0.50;99.90;;;;;;5032908;28;20544;-69
2022/01/14 03:28:58;;;;;;;118.50;19.07;;;-0.50;99.90;;;;;;5031863;28;20547;-68
2022/01/14 03:31:25;;;;;;;75.40;17.50;;;-0.50;99.90;;;;;;5032559;28;20501;-69
2022/01/14 03:33:51;;;;;;;129.20;19.90;;;-0.50;99.90;;;;;;5066074;22;20546;-81
2022/01/14 03:36:18;;;;;;;99.73;19.17;;;-0.40;99.90;;;;;;5061717;28;20444;-82
2022/01/14 03:38:45;;;;;;;118.27;20.27;;;-0.40;99.90;;;;;;5061118;28;20483;-81
2022/01/14 03:41:11;;;;;;;162.07;20.43;;;-0.30;99.90;;;;;;5042693;28;20453;-81
2022/01/14 03:43:41;;;;;;;128.93;17.73;;;-0.30;99.90;;;;;;5029427;28;20892;-81
2022/01/14 03:46:08;;;;;;;59.83;16.40;;;-0.30;99.90;;;;;;5020357;28;20454;-82
2022/01/14 03:48:34;;;;;;;144.37;20.10;;;-0.40;99.90;;;;;;5019295;28;20482;-80
2022/01/14 03:51:01;;;;;;;108.77;17.20;;;-0.50;99.90;;;;;;5028147;28;20461;-80
2022/01/14 03:53:28;;;;;;;91.83;18.10;;;-0.50;99.90;;;;;;5023933;28;20516;-80
2022/01/14 03:55:55;;;;;;;82.13;17.00;;;-0.40;99.90;;;;;;5020158;28;20454;-79
2022/01/14 03:58:22;;;;;;;110.13;18.23;;;-0.40;99.90;;;;;;5020259;28;20455;-79
2022/01/14 04:00:50;;;;;;;88.03;15.90;;;-0.50;99.90;;;;;;5019837;28;20631;-80
2022/01/14 04:03:16;;;;;;;61.73;16.77;;;-0.40;99.90;;;;;;5020057;28;20466;-80
2022/01/14 04:05:43;;;;;;;99.80;18.93;;;-0.50;99.90;;;;;;5038588;28;20461;-80
2022/01/14 04:08:10;;;;;;;78.87;16.43;;;-0.70;99.90;;;;;;5037701;28;20473;-80
2022/01/14 04:10:36;;;;;;;135.80;19.43;;;-0.70;99.90;;;;;;5036332;28;20607;-80
2022/01/14 04:13:11;;;;;;;101.20;17.80;;;-0.70;99.90;;;;;;5034747;28;20477;-81
2022/01/14 04:15:37;;;;;;;92.40;18.10;;;-0.80;99.90;;;;;;5035453;28;20454;-81
2022/01/14 04:18:06;;;;;;;160.30;19.63;;;-0.80;99.90;;;;;;5038650;28;21015;-80
2022/01/14 04:20:34;;;;;;;165.53;18.80;;;-0.80;99.90;;;;;;5027478;28;20877;-80
2022/01/14 04:23:01;;;;;;;119.17;17.33;;;-0.80;99.90;;;;;;5020074;28;20474;-80
2022/01/14 04:25:28;;;;;;;142.00;18.43;;;-0.80;99.90;;;;;;5026179;28;20461;-80
2022/01/14 04:27:55;;;;;;;143.83;16.77;;;-0.90;99.90;;;;;;5033529;28;20472;-80
2022/01/14 04:30:22;;;;;;;115.70;15.50;;;-0.90;99.90;;;;;;5025099;28;20492;-81
2022/01/14 04:32:49;;;;;;;159.17;18.20;;;-0.90;99.90;;;;;;5035475;28;20845;-80
2022/01/14 04:35:17;;;;;;;133.07;18.27;;;-0.90;99.90;;;;;;5039211;28;20495;-80
2022/01/14 04:37:43;;;;;;;108.20;15.40;;;-0.90;99.90;;;;;;5030722;28;20621;-80
2022/01/14 04:40:13;;;;;;;68.37;15.80;;;-0.90;99.90;;;;;;5022758;28;20454;-80
2022/01/14 04:42:41;;;;;;;104.13;19.97;;;-0.90;99.90;;;;;;5020750;28;20470;-80
2022/01/14 04:45:09;;;;;;;96.17;18.03;;;-0.90;99.90;;;;;;5020932;28;20466;-81
2022/01/14 04:47:44;;;;;;;124.07;16.40;;;-0.80;99.90;;;;;;5018587;28;20476;-81
2022/01/14 04:50:12;;;;;;;114.27;18.20;;;-0.80;99.90;;;;;;5019304;28;20485;-80
2022/01/14 04:52:42;;;;;;;96.60;17.80;;;-0.80;99.90;;;;;;5023269;28;20550;-81
2022/01/14 04:55:10;;;;;;;107.10;15.90;;;-0.70;99.90;;;;;;5019449;28;20449;-81
2022/01/14 04:57:37;;;;;;;124.17;17.30;;;-0.90;99.90;;;;;;5019401;28;20509;-80
2022/01/14 05:00:06;;;;;;;112.40;14.87;;;-0.90;99.90;;;;;;5019256;28;20446;-80
2022/01/14 05:02:33;;;;;;;118.40;16.40;;;-0.90;99.90;;;;;;5032717;28;20481;-78
2022/01/14 05:05:00;;;;;;;84.00;18.20;;;-0.90;99.90;;;;;;5038443;28;20963;-80
2022/01/14 05:07:27;;;;;;;101.43;16.73;;;-0.80;99.90;;;;;;5020550;28;20454;-79
2022/01/14 05:10:15;;;;;;;109.73;16.60;;;-0.80;99.90;;;;;;5020061;28;20553;-80
2022/01/14 05:12:42;;;;;;;74.07;13.90;;;-0.80;99.90;;;;;;5018432;28;20521;-80
2022/01/14 05:15:10;;;;;;;113.67;16.03;;;-0.80;99.90;;;;;;5001411;28;20466;-80
2022/01/14 05:17:37;;;;;;;135.37;17.33;;;-0.70;99.90;;;;;;5021570;28;20454;-80
2022/01/14 05:20:05;;;;;;;159.20;16.73;;;-0.70;99.90;;;;;;5031663;28;20481;-80
2022/01/14 05:22:32;;;;;;;113.93;17.97;;;-0.70;99.90;;;;;;5019702;28;20478;-80
2022/01/14 05:25:00;;;;;;;102.37;15.43;;;-0.80;99.90;;;;;;5019782;28;20474;-80
2022/01/14 05:27:27;;;;;;;93.37;16.00;;;-0.50;99.90;;;;;;5034918;28;20456;-80
2022/01/14 05:29:53;;;;;;;134.07;16.90;;;-0.80;99.90;;;;;;5027150;28;20482;-81
2022/01/14 05:32:21;;;;;;;147.67;17.10;;;-0.80;99.90;;;;;;5021157;28;20442;-80
2022/01/14 05:34:48;;;;;;;66.43;15.97;;;-0.70;99.90;;;;;;5039037;28;20533;-80
2022/01/14 05:37:15;;;;;;;63.73;15.93;;;-0.80;99.90;;;;;;5023489;28;20481;-80
2022/01/14 05:39:42;;;;;;;92.07;17.13;;;-0.80;99.90;;;;;;5029548;28;20446;-81
2022/01/14 05:42:11;;;;;;;108.63;16.57;;;-0.60;99.90;;;;;;5028327;28;21085;-80
2022/01/14 05:44:38;;;;;;;100.30;17.60;;;-0.70;99.90;;;;;;5026216;28;20474;-80
2022/01/14 05:47:06;;;;;;;95.27;18.00;;;-0.80;99.90;;;;;;5029638;28;20454;-80
2022/01/14 05:49:33;;;;;;;87.90;16.00;;;-0.80;99.90;;;;;;5030932;28;20528;-80
2022/01/14 05:52:00;;;;;;;80.33;14.90;;;-0.80;99.90;;;;;;5028175;28;20450;-80
2022/01/14 05:54:27;;;;;;;98.40;19.50;;;-0.80;99.90;;;;;;5028910;28;20485;-80
2022/01/14 05:56:53;;;;;;;87.87;17.20;;;-0.70;99.90;;;;;;5040534;28;20472;-80
2022/01/14 05:59:21;;;;;;;137.13;19.90;;;-0.70;99.90;;;;;;5024422;28;20450;-80
2022/01/14 06:01:48;;;;;;;74.23;16.63;;;-0.80;99.90;;;;;;5019294;28;20455;-80
2022/01/14 06:04:15;;;;;;;104.00;15.60;;;-0.70;99.90;;;;;;5018583;28;20477;-80
2022/01/14 06:06:42;;;;;;;85.60;15.37;;;-0.70;99.90;;;;;;5019095;28;20880;-80
2022/01/14 06:09:08;;;;;;;57.60;15.30;;;-0.70;99.90;;;;;;5022194;28;20477;-80
2022/01/14 06:11:35;;;;;;;200.20;19.00;;;-0.70;99.90;;;;;;5021912;28;20459;-80
2022/01/14 06:14:02;;;;;;;92.90;16.60;;;-0.80;99.90;;;;;;5019091;28;20890;-80
2022/01/14 06:16:30;;;;;;;131.47;19.00;;;-0.80;99.90;;;;;;5022163;28;20482;-79
2022/01/14 06:18:56;;;;;;;99.60;15.93;;;-0.80;99.90;;;;;;5018094;28;20442;-80
2022/01/14 06:21:23;;;;;;;143.20;16.03;;;-0.80;99.90;;;;;;5016978;28;20451;-81
2022/01/14 06:23:50;;;;;;;100.17;14.93;;;-0.80;99.90;;;;;;5016971;28;20478;-80
2022/01/14 06:26:17;;;;;;;112.40;15.50;;;-1.00;99.90;;;;;;5018172;28;20446;-80
2022/01/14 06:28:43;;;;;;;113.23;15.10;;;-1.00;99.90;;;;;;5017271;28;20450;-81
2022/01/14 06:31:10;;;;;;;88.47;15.43;;;-1.00;99.90;;;;;;5018007;28;20849;-80
2022/01/14 06:33:38;;;;;;;78.00;14.60;;;-1.00;99.90;;;;;;5021448;28;20466;-81
2022/01/14 06:36:05;;;;;;;92.27;15.27;;;-0.90;99.90;;;;;;5020386;28;21019;-80
2022/01/14 06:38:32;;;;;;;145.20;16.70;;;-0.90;99.90;;;;;;5020744;28;20446;-80
2022/01/14 06:40:59;;;;;;;112.07;16.40;;;-0.90;99.90;;;;;;5020988;28;20446;-80
2022/01/14 06:43:26;;;;;;;107.33;14.83;;;-0.90;99.90;;;;;;5020120;28;20474;-80
2022/01/14 06:45:52;;;;;;;156.37;15.97;;;-0.90;99.90;;;;;;5021222;28;20454;-81
2022/01/14 06:48:19;;;;;;;122.77;13.87;;;-0.80;99.90;;;;;;5024824;28;20453;-80
2022/01/14 06:50:47;;;;;;;102.23;16.17;;;-0.70;99.90;;;;;;5039811;28;20493;-80
2022/01/14 06:53:14;;;;;;;182.47;18.00;;;-0.90;99.90;;;;;;5020366;28;20489;-80
2022/01/14 06:55:41;;;;;;;136.23;18.00;;;-0.90;99.90;;;;;;5037481;28;20453;-81
2022/01/14 06:58:07;;;;;;;197.67;20.60;;;-1.10;99.90;;;;;;5043482;28;20469;-83
2022/01/14 07:00:34;;;;;;;74.53;14.50;;;-1.10;99.90;;;;;;5030073;28;20453;-79
2022/01/14 07:03:01;;;;;;;104.67;15.10;;;-1.10;99.90;;;;;;5034595;28;20970;-78
2022/01/14 07:05:28;;;;;;;129.17;16.20;;;-1.10;99.90;;;;;;5032743;28;20853;-78
2022/01/14 07:07:56;;;;;;;126.07;14.77;;;-1.10;99.90;;;;;;5023979;28;20881;-78
2022/01/14 07:10:23;;;;;;;175.50;17.33;;;-1.10;99.90;;;;;;5001265;28;20574;-79
2022/01/14 07:12:50;;;;;;;140.63;17.07;;;-1.10;99.90;;;;;;4999110;28;20476;-75
2022/01/14 07:15:20;;;;;;;95.93;13.60;;;-1.00;99.90;;;;;;5016566;28;20461;-77
2022/01/14 07:17:47;;;;;;;80.20;13.80;;;-1.00;99.90;;;;;;5018800;28;20458;-77
2022/01/14 07:20:17;;;;;;;66.33;14.87;;;-0.90;99.90;;;;;;5035871;28;20453;-77
2022/01/14 07:22:45;;;;;;;137.30;16.63;;;-0.90;99.90;;;;;;5035192;28;20802;-77
2022/01/14 07:25:14;;;;;;;97.80;15.87;;;-0.90;99.90;;;;;;5016712;28;20486;-77
2022/01/14 07:27:41;;;;;;;140.83;19.10;;;-0.90;99.90;;;;;;5016007;28;20489;-77
2022/01/14 07:30:09;;;;;;;72.30;15.60;;;-1.00;99.90;;;;;;5015031;28;20612;-78
2022/01/14 07:32:36;;;;;;;93.03;14.50;;;-1.00;99.90;;;;;;4996242;28;21080;-77
2022/01/14 07:35:03;;;;;;;97.10;15.70;;;-0.90;99.90;;;;;;5023586;28;20544;-77
2022/01/14 07:37:30;;;;;;;82.10;13.90;;;-1.00;99.90;;;;;;5022208;28;20509;-77
2022/01/14 07:39:57;;;;;;;58.40;13.77;;;-0.90;99.90;;;;;;5033642;28;20437;-77
2022/01/14 07:42:25;;;;;;;69.10;13.90;;;-1.00;99.90;;;;;;5013348;28;20512;-77
2022/01/14 07:44:52;;;;;;;53.43;15.50;;;-0.90;99.90;;;;;;5021393;28;20517;-77
2022/01/14 07:47:18;;;;;;;54.03;13.90;;;-0.90;99.90;;;;;;5014820;28;20509;-77
2022/01/14 07:49:46;;;;;;;61.40;13.80;;;-0.90;99.90;;;;;;5013526;28;20486;-77
2022/01/14 07:52:13;;;;;;;56.37;14.93;;;-1.00;99.90;;;;;;5015593;28;20458;-77
2022/01/14 07:54:40;;;;;;;59.07;14.07;;;-1.00;99.90;;;;;;5013804;28;20521;-78
2022/01/14 07:57:08;;;;;;;90.37;14.80;;;-1.00;99.90;;;;;;5018018;28;20451;-76
2022/01/14 07:59:36;;;;;;;77.33;14.73;;;-1.10;99.90;;;;;;5019818;28;20984;-75
2022/01/14 08:02:04;;;;;;;62.43;12.83;;;-1.00;99.90;;;;;;5028495;28;20488;-75
2022/01/14 08:04:33;;;;;;;67.90;14.80;;;-1.00;99.90;;;;;;5015576;28;20477;-78
2022/01/14 08:07:08;;;;;;;58.37;15.07;;;-1.00;99.90;;;;;;5002085;28;20450;-74
2022/01/14 08:09:35;;;;;;;102.87;15.47;;;-0.90;99.90;;;;;;5018218;28;20482;-75
2022/01/14 08:12:02;;;;;;;58.23;14.17;;;-1.00;99.90;;;;;;5013703;28;20453;-75
2022/01/14 08:14:28;;;;;;;116.23;15.00;;;-1.00;99.90;;;;;;5014713;28;20474;-75
2022/01/14 08:16:56;;;;;;;59.67;15.10;;;-1.00;99.90;;;;;;5026481;28;20462;-76
2022/01/14 08:19:23;;;;;;;53.43;14.43;;;-1.00;99.90;;;;;;5013549;28;20964;-77
2022/01/14 08:21:50;;;;;;;89.97;14.00;;;-1.00;99.90;;;;;;5020956;28;20450;-77
2022/01/14 08:24:16;;;;;;;79.60;15.00;;;-1.00;99.90;;;;;;5015771;28;20560;-76
2022/01/14 08:26:43;;;;;;;74.40;14.50;;;-1.00;99.90;;;;;;5014012;28;20462;-76
2022/01/14 08:29:10;;;;;;;59.57;13.90;;;-1.00;99.90;;;;;;5012546;28;20946;-76
2022/01/14 08:31:36;;;;;;;57.10;14.87;;;-1.00;99.90;;;;;;5017599;28;20694;-76
2022/01/14 08:34:04;;;;;;;110.50;14.73;;;-1.00;99.90;;;;;;5012244;28;20478;-76
2022/01/14 08:36:31;;;;;;;142.20;16.23;;;-1.00;99.90;;;;;;5013228;28;20446;-76
2022/01/14 08:38:59;;;;;;;91.53;14.53;;;-1.00;99.90;;;;;;5019711;28;20817;-77
2022/01/14 08:41:28;;;;;;;68.13;14.90;;;-0.90;99.90;;;;;;5017922;28;20446;-77
2022/01/14 08:43:55;;;;;;;73.43;15.47;;;-0.80;99.90;;;;;;5014954;28;20474;-75
2022/01/14 08:46:22;;;;;;;65.70;15.70;;;-0.80;99.90;;;;;;5015737;28;20508;-74
2022/01/14 08:48:48;;;;;;;65.63;15.10;;;-0.80;99.90;;;;;;5023872;28;20473;-74
2022/01/14 08:51:16;;;;;;;125.07;16.10;;;-0.70;99.90;;;;;;5013790;28;20470;-76
2022/01/14 08:53:43;;;;;;;101.17;15.47;;;-0.70;99.90;;;;;;5011112;28;20513;-77
2022/01/14 08:56:10;;;;;;;66.20;15.07;;;-0.70;99.90;;;;;;5015226;28;20536;-77
2022/01/14 08:58:36;;;;;;;80.23;17.30;;;-0.70;99.90;;;;;;5027677;28;20461;-76
2022/01/14 09:01:03;;;;;;;55.00;14.37;;;-0.70;99.90;;;;;;5021085;28;20950;-76
2022/01/14 09:03:30;;;;;;;87.90;16.27;;;-0.70;99.90;;;;;;5011933;28;20532;-77
2022/01/14 09:05:56;;;;;;;89.43;15.33;;;-0.70;99.90;;;;;;5014348;28;20509;-75
2022/01/14 09:08:25;;;;;;;77.70;14.63;;;-0.70;99.90;;;;;;5016833;28;20515;-75
2022/01/14 09:10:51;;;;;;;69.33;14.40;;;-0.70;99.90;;;;;;5030348;28;20493;-74
2022/01/14 09:13:18;;;;;;;98.70;14.87;;;-0.70;99.90;;;;;;5030948;28;20539;-75
2022/01/14 09:15:45;;;;;;;82.93;15.80;;;-0.70;99.90;;;;;;5017815;28;20541;-74
2022/01/14 09:18:12;;;;;;;99.13;17.00;;;-0.70;99.90;;;;;;5016308;28;20454;-74
2022/01/14 09:20:38;;;;;;;61.77;18.47;;;-0.60;99.90;;;;;;5010389;28;20871;-74
2022/01/14 09:23:12;;;;;;;56.57;16.97;;;-0.60;99.90;;;;;;5021510;28;20473;-74
2022/01/14 09:25:40;;;;;;;90.50;18.30;;;-0.60;99.90;;;;;;5012263;28;20515;-74
2022/01/14 09:28:07;;;;;;;56.30;17.10;;;-0.50;99.90;;;;;;5010272;28;20558;-74
2022/01/14 09:30:33;;;;;;;156.40;21.70;;;-0.50;99.90;;;;;;5017813;28;20478;-74
2022/01/14 09:33:00;;;;;;;96.67;19.30;;;-0.50;99.90;;;;;;5024012;28;20566;-74
2022/01/14 09:35:27;;;;;;;106.07;21.20;;;-0.40;99.90;;;;;;5009721;28;20454;-74
2022/01/14 09:37:54;;;;;;;90.17;18.80;;;-0.40;99.90;;;;;;5010283;28;20890;-71
2022/01/14 09:40:21;;;;;;;155.67;23.90;;;-0.40;99.90;;;;;;5023437;28;20556;-71
2022/01/14 09:42:50;;;;;;;116.67;19.50;;;-0.40;99.90;;;;;;5030870;28;20473;-75
2022/01/14 09:45:18;;;;;;;104.30;20.30;;;-0.40;99.90;;;;;;5026375;28;20485;-71
2022/01/14 09:47:47;;;;;;;90.13;20.37;;;-0.50;99.90;;;;;;5012398;28;20458;-71
2022/01/14 09:50:14;;;;;;;100.10;23.23;;;-0.50;99.90;;;;;;5020839;28;20488;-70
2022/01/14 09:52:41;;;;;;;138.20;17.60;;;-0.40;99.90;;;;;;5016154;28;20509;-71
2022/01/14 09:55:08;;;;;;;256.47;22.43;;;-0.40;99.90;;;;;;5011102;28;20461;-71
2022/01/14 09:57:36;;;;;;;135.47;20.60;;;-0.50;99.90;;;;;;5015024;28;20492;-71
2022/01/14 10:00:05;;;;;;;259.13;24.80;;;-0.50;99.90;;;;;;5021556;28;20457;-71
2022/01/14 10:02:35;;;;;;;149.77;21.30;;;-0.50;99.90;;;;;;5025999;28;20457;-70
2022/01/14 10:05:03;;;;;;;252.87;21.90;;;-0.50;99.90;;;;;;5012919;28;20540;-70
2022/01/14 10:07:31;;;;;;;202.50;23.70;;;-0.50;99.90;;;;;;5022268;28;20453;-73
2022/01/14 10:10:00;;;;;;;192.57;21.13;;;-0.50;99.90;;;;;;5013406;28;20553;-73
2022/01/14 10:12:32;;;;;;;152.23;19.93;;;-0.50;99.90;;;;;;5015714;28;20553;-72
2022/01/14 10:15:01;;;;;;;93.10;18.33;;;-0.50;99.90;;;;;;5023480;28;20479;-73
2022/01/14 10:17:37;;;;;;;137.03;19.23;;;-0.60;99.90;;;;;;5015268;28;20928;-73
2022/01/14 10:20:06;;;;;;;163.37;21.53;;;-0.50;99.90;;;;;;5025036;28;20535;-73
2022/01/14 10:22:35;;;;;;;142.03;21.00;;;-0.50;99.90;;;;;;5014552;28;20493;-73
2022/01/14 10:25:05;;;;;;;124.27;20.90;;;-0.60;99.90;;;;;;5015256;28;20541;-72
2022/01/14 10:27:36;;;;;;;169.10;22.50;;;-0.60;99.90;;;;;;5022964;28;20456;-74
2022/01/14 10:30:12;;;;;;;149.70;22.50;;;-0.50;99.90;;;;;;5014875;28;20454;-74
2022/01/14 10:32:42;;;;;;;104.30;20.13;;;-0.50;99.90;;;;;;5013944;28;21063;-74
2022/01/14 10:35:11;;;;;;;109.03;19.60;;;-0.50;99.90;;;;;;5016389;28;20492;-71
2022/01/14 10:37:38;;;;;;;84.33;18.27;;;-0.50;99.90;;;;;;5026860;28;20450;-73
2022/01/14 10:40:13;;;;;;;79.27;20.97;;;-0.40;99.90;;;;;;5013838;28;20453;-73
2022/01/14 10:42:41;;;;;;;137.50;21.47;;;-0.30;99.90;;;;;;5005922;28;20490;-72
2022/01/14 10:45:22;;;;;;;114.60;19.80;;;-0.30;99.90;;;;;;5027135;28;20532;-73
2022/01/14 10:47:59;;;;;;;102.87;19.97;;;-0.30;99.90;;;;;;5015115;28;20616;-73
2022/01/14 10:50:31;;;;;;;148.10;20.97;;;-0.30;99.90;;;;;;5013086;28;20496;-73
2022/01/14 10:52:58;;;;;;;148.07;24.67;;;-0.30;99.90;;;;;;5013253;28;20944;-74
2022/01/14 10:55:32;;;;;;;153.47;23.40;;;-0.30;99.90;;;;;;5023842;28;20449;-74
2022/01/14 10:58:01;;;;;;;99.57;22.37;;;-0.30;99.90;;;;;;5028177;28;21012;-74
2022/01/14 11:00:29;;;;;;;153.27;24.10;;;-0.30;99.90;;;;;;5015806;28;20457;-73
2022/01/14 11:02:57;;;;;;;120.47;22.27;;;-0.20;99.90;;;;;;5014740;28;20486;-74
2022/01/14 11:05:25;;;;;;;145.20;23.10;;;-0.20;99.90;;;;;;5028682;28;20457;-74
2022/01/14 11:07:52;;;;;;;108.30;24.77;;;-0.30;99.90;;;;;;5013227;28;20462;-74
2022/01/14 11:10:24;;;;;;;97.23;20.60;;;-0.20;99.90;;;;;;5012635;28;20520;-73
2022/01/14 11:12:53;;;;;;;127.50;21.00;;;-0.10;99.90;;;;;;5016031;28;20532;-72
2022/01/14 11:15:21;;;;;;;121.97;21.30;;;-0.10;99.90;;;;;;5023419;28;20515;-75
2022/01/14 11:17:51;;;;;;;145.40;22.13;;;-0.10;99.90;;;;;;5020800;28;20462;-74
2022/01/14 11:20:24;;;;;;;72.73;19.70;;;0.00;99.90;;;;;;5032352;28;20463;-73
2022/01/14 11:25:44;;;;;;;100.60;21.40;;;0.00;99.90;;;;;;5039733;22;20461;-67
2022/01/14 11:28:12;;;;;;;88.83;22.67;;;0.10;99.90;;;;;;5009903;28;20462;-66
2022/01/14 11:30:40;;;;;;;99.00;20.87;;;0.10;99.90;;;;;;5010581;28;20478;-66
2022/01/14 11:33:08;;;;;;;82.97;23.93;;;0.20;99.90;;;;;;5012471;28;20862;-66
2022/01/14 11:35:38;;;;;;;75.70;20.67;;;0.20;99.90;;;;;;5012368;28;20504;-67
2022/01/14 11:38:36;;;;;;;82.83;21.43;;;0.20;99.90;;;;;;5011264;28;20447;-66
2022/01/14 11:41:03;;;;;;;148.60;20.97;;;0.10;99.90;;;;;;5010384;28;20450;-66
2022/01/14 11:43:40;;;;;;;83.90;20.20;;;0.00;99.90;;;;;;5011381;28;20458;-66
2022/01/14 11:46:08;;;;;;;69.67;19.87;;;0.00;99.90;;;;;;5009563;28;20482;-66
2022/01/14 11:48:40;;;;;;;89.53;21.50;;;0.00;99.90;;;;;;5011338;28;21160;-68
2022/01/14 11:51:09;;;;;;;140.20;22.30;;;0.00;99.90;;;;;;5010014;28;20853;-67
2022/01/14 11:53:42;;;;;;;76.97;20.33;;;0.00;99.90;;;;;;5011352;28;20954;-67
2022/01/14 11:56:46;;;;;;;161.13;22.40;;;0.00;99.90;;;;;;5010511;28;20525;-67
2022/01/14 11:59:41;;;;;;;88.97;22.40;;;0.00;99.90;;;;;;5012355;28;21062;-66
2022/01/14 12:02:48;;;;;;;145.50;22.73;;;0.20;99.90;;;;;;5009867;28;20496;-67
2022/01/14 12:05:16;;;;;;;70.90;22.60;;;0.10;99.90;;;;;;4992507;28;20453;-67
2022/01/14 12:08:14;;;;;;;103.33;22.00;;;0.20;99.90;;;;;;5011204;28;20482;-67
2022/01/14 12:10:43;;;;;;;108.33;21.93;;;0.20;99.90;;;;;;5010448;28;20513;-67
2022/01/14 12:13:38;;;;;;;60.00;22.97;;;0.30;99.90;;;;;;5002593;28;20975;-67
2022/01/14 12:16:07;;;;;;;124.83;26.07;;;0.40;99.90;;;;;;5016243;28;20656;-67
2022/01/14 12:19:21;;;;;;;110.40;22.00;;;0.30;99.90;;;;;;5011522;28;20442;-67
2022/01/14 12:22:08;;;;;;;63.10;21.73;;;0.30;99.90;;;;;;5010438;28;20474;-67
2022/01/14 12:24:52;;;;;;;130.43;25.53;;;0.30;99.90;;;;;;5010096;28;20958;-67
2022/01/14 12:27:22;;;;;;;151.50;25.10;;;0.20;99.90;;;;;;5001744;28;20994;-67
2022/01/14 12:29:50;;;;;;;93.67;24.40;;;0.10;99.90;;;;;;5009883;28;20460;-67
2022/01/14 12:32:19;;;;;;;104.43;22.70;;;0.10;99.90;;;;;;5009049;28;20474;-67
2022/01/14 12:35:02;;;;;;;76.37;22.00;;;0.10;99.90;;;;;;5010769;28;20508;-67
2022/01/14 12:37:31;;;;;;;76.43;24.97;;;0.00;99.90;;;;;;5011318;28;20476;-68
2022/01/14 12:40:06;;;;;;;107.43;24.50;;;0.00;99.90;;;;;;5007784;28;20516;-67
2022/01/14 12:42:32;;;;;;;64.47;23.77;;;0.10;99.90;;;;;;5008415;28;20458;-67
2022/01/14 12:45:00;;;;;;;73.00;23.50;;;0.10;99.90;;;;;;5011058;28;21024;-68